createdAt,value
2023-01-20T00:02:00.940Z,97110.00
2023-01-20T00:06:01.955Z,97127.00
2023-01-20T00:10:03.283Z,97138.00
2023-01-20T00:14:04.288Z,97138.00
2023-01-20T00:18:05.392Z,97139.00
2023-01-20T00:22:06.332Z,97153.00
2023-01-20T00:26:10.521Z,97148.00
2023-01-20T00:30:12.389Z,97153.00
2023-01-20T00:34:13.455Z,97145.00
2023-01-20T00:38:15.068Z,97148.00
2023-01-20T00:42:17.031Z,96977.00
2023-01-20T00:46:18.020Z,97150.00
2023-01-20T00:50:18.895Z,97158.00
2023-01-20T00:54:20.212Z,97149.00
2023-01-20T00:58:21.313Z,97170.00
2023-01-20T01:02:22.498Z,97156.00
2023-01-20T01:06:23.607Z,97173.00
2023-01-20T01:10:24.694Z,97171.00
2023-01-20T01:14:25.763Z,97168.00
2023-01-20T01:18:27.009Z,97171.00
2023-01-20T01:22:28.073Z,97176.00
2023-01-20T01:26:29.599Z,97183.00
2023-01-20T01:30:30.743Z,97187.00
2023-01-20T01:34:32.136Z,97188.00
2023-01-20T01:38:33.571Z,97183.00
2023-01-20T01:42:34.857Z,97184.00
2023-01-20T01:46:37.125Z,97196.00
2023-01-20T01:50:47.610Z,97192.00
2023-01-20T01:54:50.136Z,97199.00
2023-01-20T01:58:54.429Z,97202.00
2023-01-20T02:02:56.407Z,97203.00
2023-01-20T02:07:03.942Z,97207.00
2023-01-20T02:11:05.087Z,97219.00
2023-01-20T02:15:06.998Z,97224.00
2023-01-20T02:19:34.574Z,97224.00
2023-01-20T02:23:51.490Z,97230.00
2023-01-20T02:28:20.243Z,97224.00
2023-01-20T02:32:33.847Z,97241.00
2023-01-20T02:37:01.203Z,97240.00
2023-01-20T02:41:15.324Z,97243.00
2023-01-20T02:45:25.753Z,97248.00
2023-01-20T02:49:36.302Z,97257.00
2023-01-20T02:53:44.011Z,97257.00
2023-01-20T02:57:51.638Z,97260.00
2023-01-20T03:02:08.554Z,97276.00
2023-01-20T03:06:19.395Z,97270.00
2023-01-20T03:10:23.665Z,97275.00
2023-01-20T03:14:24.800Z,97271.00
2023-01-20T03:18:28.319Z,97276.00
2023-01-20T03:22:30.283Z,97284.00
2023-01-20T03:26:31.267Z,97284.00
2023-01-20T03:30:32.491Z,97301.00
2023-01-20T03:34:36.593Z,97302.00
2023-01-20T03:38:37.696Z,97303.00
2023-01-20T03:42:45.333Z,97304.00
2023-01-20T03:47:02.214Z,97299.00
2023-01-20T03:51:21.992Z,97300.00
2023-01-20T03:55:29.776Z,97309.00
2023-01-20T03:59:34.096Z,97313.00
2023-01-20T04:03:38.840Z,97318.00
2023-01-20T04:07:42.454Z,97321.00
2023-01-20T04:11:43.686Z,97325.00
2023-01-20T04:15:45.818Z,97328.00
2023-01-20T04:19:47.842Z,97315.00
2023-01-20T04:23:58.756Z,97321.00
2023-01-20T04:27:59.752Z,97333.00
2023-01-20T04:32:02.006Z,97338.00
2023-01-20T04:36:03.453Z,97336.00
2023-01-20T04:40:05.546Z,97344.00
2023-01-20T04:44:06.712Z,97345.00
2023-01-20T04:48:08.433Z,97355.00
2023-01-20T04:52:09.529Z,97353.00
2023-01-20T04:56:12.341Z,97355.00
2023-01-20T05:00:16.040Z,97349.00
2023-01-20T05:04:17.182Z,97354.00
2023-01-20T05:08:18.132Z,97360.00
2023-01-20T05:12:19.256Z,97363.00
2023-01-20T05:16:22.248Z,97364.00
2023-01-20T05:20:23.282Z,97363.00
2023-01-20T05:24:24.299Z,97375.00
2023-01-20T05:28:25.455Z,97376.00
2023-01-20T05:32:26.369Z,97378.00
2023-01-20T05:36:27.611Z,97391.00
2023-01-20T05:40:28.651Z,97392.00
2023-01-20T05:44:29.748Z,97406.00
2023-01-20T05:48:31.119Z,97407.00
2023-01-20T05:52:32.206Z,97412.00
2023-01-20T05:56:34.406Z,97416.00
2023-01-20T06:00:36.001Z,97430.00
2023-01-20T06:04:36.923Z,97423.00
2023-01-20T06:08:37.884Z,97423.00
2023-01-20T06:12:38.849Z,97430.00
2023-01-20T06:16:39.893Z,97434.00
2023-01-20T06:20:40.864Z,97438.00
2023-01-20T06:24:41.872Z,97441.00
2023-01-20T06:28:42.796Z,97448.00
2023-01-20T06:32:46.345Z,97451.00
2023-01-20T06:36:47.297Z,97455.00
2023-01-20T06:40:48.430Z,97456.00
2023-01-20T06:44:49.477Z,97468.00
2023-01-20T06:48:50.428Z,97472.00
2023-01-20T06:52:53.005Z,97472.00
2023-01-20T06:56:53.939Z,97476.00
2023-01-20T07:00:56.436Z,97481.00
2023-01-20T07:04:57.665Z,97482.00
2023-01-20T07:08:59.919Z,97485.00
2023-01-20T07:13:01.134Z,97477.00
2023-01-20T07:17:02.178Z,97495.00
2023-01-20T07:21:04.332Z,97494.00
2023-01-20T07:25:05.785Z,97499.00
2023-01-20T07:29:06.889Z,97511.00
2023-01-20T07:33:07.859Z,97504.00
2023-01-20T07:37:08.920Z,97513.00
2023-01-20T07:41:12.632Z,97527.00
2023-01-20T07:45:14.289Z,97524.00
2023-01-20T07:49:15.304Z,97527.00
2023-01-20T07:53:16.416Z,97529.00
2023-01-20T07:57:17.501Z,97537.00
2023-01-20T08:01:25.020Z,97555.00
2023-01-20T08:05:26.132Z,97537.00
2023-01-20T08:09:27.458Z,97557.00
2023-01-20T08:13:29.350Z,97553.00
2023-01-20T08:17:30.751Z,97558.00
2023-01-20T08:21:32.862Z,97558.00
2023-01-20T08:25:33.974Z,97558.00
2023-01-20T08:29:36.943Z,97576.00
2023-01-20T08:33:38.883Z,97573.00
2023-01-20T08:37:39.842Z,97570.00
2023-01-20T08:41:42.701Z,97574.00
2023-01-20T08:45:43.723Z,97580.00
2023-01-20T08:49:44.883Z,97580.00
2023-01-20T08:53:46.015Z,97583.00
2023-01-20T08:57:46.979Z,97591.00
2023-01-20T09:01:48.318Z,97596.00
2023-01-20T09:05:50.049Z,97609.00
2023-01-20T09:09:51.249Z,97616.00
2023-01-20T09:13:53.958Z,97610.00
2023-01-20T09:17:55.191Z,97610.00
2023-01-20T09:21:56.879Z,97611.00
2023-01-20T09:26:01.961Z,97618.00
2023-01-20T09:30:04.181Z,97619.00
2023-01-20T09:34:05.762Z,97616.00
2023-01-20T09:38:25.746Z,97615.00
2023-01-20T09:43:10.177Z,97615.00
2023-01-20T09:47:29.725Z,97623.00
2023-01-20T09:51:58.063Z,97621.00
2023-01-20T09:56:08.380Z,97624.00
2023-01-20T10:00:16.724Z,97618.00
2023-01-20T10:04:29.117Z,97617.00
2023-01-20T10:08:36.647Z,97602.00
2023-01-20T10:12:41.528Z,97619.00
2023-01-20T10:17:04.425Z,97630.00
2023-01-20T10:21:15.213Z,97631.00
2023-01-20T10:25:32.242Z,97630.00
2023-01-20T10:29:40.132Z,97634.00
2023-01-20T10:33:44.429Z,97635.00
2023-01-20T10:37:45.657Z,97631.00
2023-01-20T10:41:50.464Z,97632.00
2023-01-20T10:46:04.799Z,97630.00
2023-01-20T10:50:27.618Z,97649.00
2023-01-20T10:54:50.762Z,97640.00
2023-01-20T10:58:51.998Z,97535.00
2023-01-20T11:02:53.700Z,97643.00
2023-01-20T11:06:58.303Z,97651.00
2023-01-20T11:11:03.462Z,97637.00
2023-01-20T11:15:08.698Z,97652.00
2023-01-20T11:19:11.384Z,97643.00
2023-01-20T11:23:19.086Z,97654.00
2023-01-20T11:27:23.237Z,97653.00
2023-01-20T11:31:49.411Z,97654.00
2023-01-20T11:36:05.148Z,97654.00
2023-01-20T11:40:19.261Z,97648.00
2023-01-20T11:44:20.526Z,97657.00
2023-01-20T11:48:22.867Z,97660.00
2023-01-20T11:52:24.067Z,97660.00
2023-01-20T11:56:25.801Z,97668.00
2023-01-20T12:00:43.302Z,97660.00
2023-01-20T12:04:52.204Z,97660.00
2023-01-20T12:09:02.828Z,97665.00
2023-01-20T12:13:22.592Z,97660.00
2023-01-20T12:17:45.767Z,97661.00
2023-01-20T12:21:50.585Z,97666.00
2023-01-20T12:25:57.032Z,97670.00
2023-01-20T12:30:08.072Z,97661.00
2023-01-20T12:34:15.066Z,97664.00
2023-01-20T12:38:19.228Z,97671.00
2023-01-20T12:42:24.027Z,97672.00
2023-01-20T12:46:40.782Z,97679.00
2023-01-20T12:50:57.142Z,97674.00
2023-01-20T12:55:07.812Z,97690.00
2023-01-20T12:59:27.980Z,97690.00
2023-01-20T13:04:01.730Z,97685.00
2023-01-20T13:08:15.769Z,97680.00
2023-01-20T13:12:30.058Z,97681.00
2023-01-20T13:16:42.704Z,97679.00
2023-01-20T13:20:45.912Z,97688.00
2023-01-20T13:24:52.277Z,97677.00
2023-01-20T13:28:55.420Z,97684.00
2023-01-20T13:33:07.831Z,97695.00
2023-01-20T13:37:24.611Z,97682.00
2023-01-20T13:41:48.611Z,97684.00
2023-01-20T13:46:09.226Z,97692.00
2023-01-20T13:50:23.473Z,97696.00
2023-01-20T13:54:30.169Z,97690.00
2023-01-20T13:58:33.226Z,97700.00
2023-01-20T14:02:36.885Z,97700.00
2023-01-20T14:06:47.061Z,97699.00
2023-01-20T14:10:48.351Z,97708.00
2023-01-20T14:14:49.920Z,97706.00
2023-01-20T14:18:54.584Z,97718.00
2023-01-20T14:22:58.003Z,97713.00
2023-01-20T14:27:19.203Z,97719.00
2023-01-20T14:31:23.867Z,97717.00
2023-01-20T14:35:31.563Z,97727.00
2023-01-20T14:39:33.123Z,97743.00
2023-01-20T14:43:34.767Z,97730.00
2023-01-20T14:47:36.931Z,97729.00
2023-01-20T14:51:38.009Z,97737.00
2023-01-20T14:55:40.169Z,97734.00
2023-01-20T14:59:41.545Z,97741.00
2023-01-20T15:03:42.671Z,97733.00
2023-01-20T15:07:43.622Z,97749.00
2023-01-20T15:11:45.634Z,97747.00
2023-01-20T15:15:46.695Z,97766.00
2023-01-20T15:19:47.720Z,97757.00
2023-01-20T15:23:50.876Z,97749.00
2023-01-20T15:27:53.632Z,97761.00
2023-01-20T15:31:56.846Z,97756.00
2023-01-20T15:35:59.439Z,97767.00
2023-01-20T15:40:00.885Z,97770.00
2023-01-20T15:44:01.849Z,97780.00
2023-01-20T15:48:06.853Z,97776.00
2023-01-20T15:52:10.204Z,97784.00
2023-01-20T15:56:25.940Z,97779.00
2023-01-20T16:00:28.767Z,97782.00
2023-01-20T16:04:30.943Z,97798.00
2023-01-20T16:08:36.013Z,97794.00
2023-01-20T16:12:36.964Z,97803.00
2023-01-20T16:16:38.186Z,97802.00
2023-01-20T16:20:39.440Z,97811.00
2023-01-20T16:24:41.642Z,97820.00
2023-01-20T16:28:42.736Z,97829.00
2023-01-20T16:32:47.013Z,97821.00
2023-01-20T16:36:48.342Z,97826.00
2023-01-20T16:40:58.829Z,97828.00
2023-01-20T16:45:00.007Z,97824.00
2023-01-20T16:49:02.396Z,97844.00
2023-01-20T16:53:03.917Z,97844.00
2023-01-20T16:57:05.016Z,97847.00
2023-01-20T17:01:10.685Z,97856.00
2023-01-20T17:05:11.754Z,97851.00
2023-01-20T17:09:13.518Z,97859.00
2023-01-20T17:13:14.539Z,97861.00
2023-01-20T17:17:15.509Z,97866.00
2023-01-20T17:21:21.895Z,97862.00
2023-01-20T17:25:23.639Z,97862.00
2023-01-20T17:29:24.876Z,97873.00
2023-01-20T17:33:27.810Z,97871.00
2023-01-20T17:37:29.012Z,97864.00
2023-01-20T17:41:30.664Z,97863.00
2023-01-20T17:45:31.961Z,97872.00
2023-01-20T17:49:33.573Z,97880.00
2023-01-20T17:53:34.592Z,97883.00
2023-01-20T17:57:35.655Z,97893.00
2023-01-20T18:01:37.008Z,97899.00
2023-01-20T18:05:38.047Z,97901.00
2023-01-20T18:09:39.891Z,97902.00
2023-01-20T18:13:45.010Z,97915.00
2023-01-20T18:17:46.380Z,97908.00
2023-01-20T18:21:47.591Z,97914.00
2023-01-20T18:25:53.568Z,97912.00
2023-01-20T18:29:54.608Z,97912.00
2023-01-20T18:33:58.264Z,97917.00
2023-01-20T18:38:01.296Z,97924.00
2023-01-20T18:42:02.589Z,97917.00
2023-01-20T18:46:04.506Z,97926.00
2023-01-20T18:50:06.939Z,97928.00
2023-01-20T18:54:11.073Z,97923.00
2023-01-20T18:58:14.013Z,97926.00
2023-01-20T19:02:15.211Z,97923.00
2023-01-20T19:06:21.993Z,97927.00
2023-01-20T19:10:22.976Z,97929.00
2023-01-20T19:14:24.161Z,97940.00
2023-01-20T19:18:25.387Z,97948.00
2023-01-20T19:22:26.503Z,97943.00
2023-01-20T19:26:28.147Z,97941.00
2023-01-20T19:30:29.221Z,97949.00
2023-01-20T19:34:30.191Z,97958.00
2023-01-20T19:38:33.306Z,97955.00
2023-01-20T19:42:34.329Z,97969.00
2023-01-20T19:46:38.022Z,97964.00
2023-01-20T19:50:39.475Z,97966.00
2023-01-20T19:54:40.964Z,97979.00
2023-01-20T19:58:43.034Z,97970.00
2023-01-20T20:02:44.402Z,97980.00
2023-01-20T20:06:48.461Z,97983.00
2023-01-20T20:10:50.477Z,97983.00
2023-01-20T20:14:51.431Z,97990.00
2023-01-20T20:18:54.550Z,97993.00
2023-01-20T20:22:55.520Z,98006.00
2023-01-20T20:26:57.518Z,97995.00
2023-01-20T20:31:02.885Z,98001.00
2023-01-20T20:35:05.669Z,98003.00
2023-01-20T20:39:07.545Z,98011.00
2023-01-20T20:43:08.705Z,98024.00
2023-01-20T20:47:09.825Z,98013.00
2023-01-20T20:51:13.758Z,98010.00
2023-01-20T20:55:14.807Z,98009.00
2023-01-20T20:59:15.904Z,98022.00
2023-01-20T21:03:17.367Z,98033.00
2023-01-20T21:07:18.893Z,98030.00
2023-01-20T21:11:20.638Z,98041.00
2023-01-20T21:15:24.924Z,98042.00
2023-01-20T21:19:25.977Z,98048.00
2023-01-20T21:23:28.699Z,98048.00
2023-01-20T21:27:32.320Z,98058.00
2023-01-20T21:31:36.931Z,98057.00
2023-01-20T21:35:38.383Z,98067.00
2023-01-20T21:39:39.600Z,98068.00
2023-01-20T21:44:01.591Z,98073.00
2023-01-20T21:48:04.906Z,98079.00
2023-01-20T21:52:26.236Z,98076.00
2023-01-20T21:56:27.255Z,98081.00
2023-01-20T22:00:29.246Z,98088.00
2023-01-20T22:04:31.701Z,98090.00
2023-01-20T22:08:32.841Z,98101.00
2023-01-20T22:12:34.978Z,98095.00
2023-01-20T22:16:36.602Z,98111.00
2023-01-20T22:20:38.949Z,98114.00
2023-01-20T22:24:39.931Z,98126.00
2023-01-20T22:28:41.115Z,98006.00
2023-01-20T22:32:42.215Z,98133.00
2023-01-20T22:36:44.415Z,98131.00
2023-01-20T22:40:45.486Z,98147.00
2023-01-20T22:44:46.722Z,98148.00
2023-01-20T22:48:48.219Z,98155.00
2023-01-20T22:52:49.622Z,98154.00
2023-01-20T22:56:50.637Z,98160.00
2023-01-20T23:00:51.853Z,98168.00
2023-01-20T23:04:52.854Z,98170.00
2023-01-20T23:08:54.358Z,98166.00
2023-01-20T23:12:55.319Z,98178.00
2023-01-20T23:16:56.395Z,98187.00
2023-01-20T23:20:57.949Z,98190.00
2023-01-20T23:24:58.912Z,98189.00
2023-01-20T23:29:00.026Z,98191.00
2023-01-20T23:33:01.018Z,98192.00
2023-01-20T23:37:02.066Z,98203.00
2023-01-20T23:41:03.333Z,98209.00
2023-01-20T23:45:05.162Z,98218.00
2023-01-20T23:49:06.409Z,98213.00
2023-01-20T23:53:07.364Z,98222.00
2023-01-20T23:57:08.501Z,98223.00
